Latest Coastal Weather Observations for Double Island Point

IDQ60701

Issued at 10:31 pm EST Thursday 29 January 2015 (issued every 10 minutes, with the page automatically refreshed every 10 minutes)

About coastal observations | Map of coastal stations | Coastal observations for QLD | Marine services | Other Formats
Station Details ID: 040068 Name: DOUBLE ISLAND POINT LIGHTHOUSE Lat: -25.93 Lon: 153.19 Height: 95.64 m
Data from the previous 72 hours. | See also: Recent months at Double Island Point
Date/Time
EST
Temp

°C
Wind Pressure Rain
since 9am
mm
Weather Cloud Vis
km
Sea
Height
m
Swell
Dir
 
Speed
knots
Gust
knots
hPa Trend Height
m
Period
s
Dir
29/10:30pm 23.8 ESE 19 22 1009.0 - 2.8 - - - - - - -
29/10:00pm 23.8 ESE 18 21 1009.0 - 2.8 - - - - - - -
29/09:30pm 23.9 ESE 18 21 1009.0 - 2.8 - - - - - - -
29/09:00pm 23.8 ESE 17 22 1009.0 - 2.8 - - - - - - -
29/08:30pm 23.9 ESE 18 22 1008.6 - 2.8 - - - - - - -
29/08:00pm 24.0 ESE 19 23 1008.4 - 2.8 - - - - - - -
29/07:30pm 23.9 ESE 19 22 1008.2 - 2.8 - - - - - - -
29/07:00pm 23.9 ESE 19 21 1007.9 - 2.8 - - - - - - -
29/06:30pm 24.0 ESE 19 22 1007.6 - 2.8 - - - - - - -
29/06:00pm 24.3 ESE 19 23 1007.1 - 2.8 - - - - - - -
29/05:30pm 24.4 SE 21 23 1006.9 - 2.8 - - - - - - -
29/05:00pm 24.6 SE 21 24 1006.4 - 2.8 - - - - - - -
29/04:30pm 24.9 SE 21 24 1006.2 - 2.8 - - - - - - -
29/04:00pm 24.6 SE 24 26 1006.1 - 2.8 - - - - - - -
29/03:30pm 24.7 SSE 22 25 1006.2 - 2.8 - - - - - - -
29/03:00pm 24.7 SSE 20 24 1006.4 - 2.8 - - - - - - -
29/02:30pm 24.6 SSE 24 28 1006.4 - 2.8 - - - - - - -
29/02:00pm 24.0 SSE 24 29 1006.3 - 2.8 - - - - - - -
29/01:30pm 22.6 SE 16 23 1006.7 - 2.8 - - - - - - -
29/01:00pm 21.9 ESE 18 26 1006.8 - 2.8 - - - - - - -
29/12:38pm 21.9 SE 17 27 1007.0 - 2.2 - - - - - - -
29/12:30pm 21.6 SE 21 23 1007.1 - 1.8 - - - - - - -
29/12:00pm 22.5 SSE 24 28 1007.1 - 0.0 - - - - - - -
29/11:30am 23.4 SSE 26 33 1006.9 - 0.0 - - - - - - -
29/11:00am 23.2 SSE 24 31 1006.9 - 0.0 - - - - - - -
29/10:30am 22.6 SSE 27 32 1007.1 - 0.0 - - - - - - -
29/10:00am 23.2 SSE 25 30 1007.3 - 0.0 - - - - - - -
29/09:30am 23.3 SSE 27 32 1007.0 - 0.0 - - - - - - -
29/09:00am 22.2 SSE 25 31 1007.0 - 5.8 - - - - - - -
29/08:30am 22.5 SE 29 33 1006.5 - 5.8 - - - - - - -
29/08:00am 21.9 SE 26 31 1006.7 - 5.8 - - - - - - -
29/07:30am 22.9 SSE 26 31 1006.5 - 5.8 - - - - - - -
29/07:00am 22.8 SSE 27 33 1006.1 - 5.8 - - - - - - -
29/06:30am 22.7 SSE 28 33 1006.1 - 5.8 - - - - - - -
29/06:00am 22.6 SSE 29 35 1005.7 - 5.8 - - - - - - -
29/05:30am 22.9 SSE 29 35 1005.1 - 5.8 - - - - - - -
29/05:00am 22.9 SSE 27 32 1004.9 - 5.8 - - - - - - -
29/04:30am 22.7 SSE 27 33 1004.8 - 5.8 - - - - - - -
29/04:00am 22.8 SSE 27 33 1004.7 - 5.8 - - - - - - -
29/03:30am 22.7 SSE 27 33 1004.3 - 5.8 - - - - - - -
29/03:00am 22.4 SSE 29 34 1004.2 - 5.8 - - - - - - -
29/02:30am 22.2 SSE 29 35 1004.3 - 5.8 - - - - - - -
29/02:00am 22.7 SSE 26 31 1004.7 - 5.8 - - - - - - -
29/01:30am 22.9 SSE 29 35 1004.8 - 5.8 - - - - - - -
29/01:00am 23.1 SSE 27 34 1005.0 - 5.8 - - - - - - -
29/12:30am 22.7 SSE 27 33 1005.2 - 5.8 - - - - - - -
 
Date/Time
EST
Temp

°C
Wind Pressure Rain
since 9am
mm
Weather Cloud Vis
km
Sea
Height
m
Swell
Dir
 
Speed
knots
Gust
knots
hPa Trend Height
m
Period
s
Dir
28/11:30pm 22.0 SE 27 33 1005.8 - 4.0 - - - - - - -
28/11:00pm 22.4 SSE 28 35 1005.8 - 4.0 - - - - - - -
28/10:30pm 22.2 SE 31 34 1006.3 - 4.0 - - - - - - -
28/10:00pm 21.7 SSE 28 34 1006.1 - 3.8 - - - - - - -
28/09:30pm 22.9 SE 31 36 1005.6 - 3.6 - - - - - - -
28/09:00pm 23.3 SE 31 36 1005.3 - 3.6 - - - - - - -
28/08:30pm 23.5 SSE 29 38 1005.1 - 3.6 - - - - - - -
28/08:26pm 23.4 SSE 28 38 1004.9 - 3.6 - - - - - - -
28/08:00pm 22.9 SSE 27 34 1004.9 - 3.6 - - - - - - -
28/07:32pm 22.0 SSE 27 38 1004.9 - 3.6 - - - - - - -
28/07:30pm 22.7 SSE 25 34 1005.1 - 3.6 - - - - - - -
28/07:03pm 22.2 SE 18 32 1005.3 - 2.8 - - - - - - -
28/07:00pm 22.5 ESE 17 23 1005.5 - 2.8 - - - - - - -
28/06:30pm 22.5 ESE 23 27 1005.2 - 2.4 - - - - - - -
28/06:11pm 22.8 SE 26 31 1004.7 - 2.4 - - - - - - -
28/06:00pm 22.8 SSE 24 29 1004.6 - 2.4 Recent precip. - - - - - -
28/05:30pm 21.3 SE 22 26 1004.7 - 2.4 - - - - - - -
28/05:00pm 21.6 SSE 21 28 1004.4 - 2.0 - - - - - - -
28/04:30pm 21.7 SE 21 24 1004.4 - 1.2 - - - - - - -
28/04:00pm 21.7 ESE 27 33 1003.0 - 1.2 - - - - - - -
28/03:30pm 21.7 SE 23 27 1004.3 - 0.8 - - - - - - -
28/03:02pm 22.2 SSE 26 36 1003.8 - 0.4 - - - - - - -
28/03:00pm 22.3 SSE 25 32 1003.9 - 0.2 Recent precip. - - - - - -
28/02:30pm 22.0 SSE 20 28 1004.3 - 0.2 - - - - - - -
28/02:00pm 21.7 SSE 24 28 1004.1 - 0.0 - - - - - - -
28/01:30pm 22.6 SSE 25 31 1004.1 - 0.0 - - - - - - -
28/01:00pm 23.3 SSE 27 32 1004.1 - 0.0 - - - - - - -
28/12:30pm 24.2 SSE 21 26 1004.4 - 0.0 - - - - - - -
28/12:00pm 24.9 SSE 21 26 1004.5 - 0.0 - - - - - - -
28/11:30am 24.4 SSE 23 28 1004.6 - 0.0 - - - - - - -
28/11:00am 24.8 SSE 21 25 1004.8 - 0.0 - - - - - - -
28/10:30am 24.1 SSE 22 27 1005.0 - 0.0 - - - - - - -
28/10:00am 23.4 SSE 22 27 1004.9 - 0.0 - - - - - - -
28/09:30am 23.6 SSE 23 28 1004.5 - 0.0 - - - - - - -
28/09:08am 23.2 SSE 19 30 1004.5 - 0.0 - - - - - - -
28/09:00am 23.8 SSE 19 26 1004.8 - 0.8 - - - - - - -
28/08:30am 24.1 SSE 24 28 1004.3 - 0.8 - - - - - - -
28/08:00am 24.0 SSE 25 30 1004.0 - 0.8 - - - - - - -
28/07:30am 24.0 SSE 26 31 1003.7 - 0.8 - - - - - - -
28/07:00am 23.6 SSE 24 29 1003.7 - 0.8 - - - - - - -
28/06:30am 23.6 SSE 24 29 1003.4 - 0.8 - - - - - - -
28/06:00am 24.1 SE 23 27 1003.5 - 0.8 - - - - - - -
28/05:30am 23.8 SE 24 27 1003.1 - 0.8 - - - - - - -
28/05:00am 23.2 SSE 25 29 1002.9 - 0.8 - - - - - - -
28/04:30am 23.1 SSE 23 28 1003.1 - 0.8 - - - - - - -
28/04:00am 23.9 SSE 19 22 1003.5 - 0.0 - - - - - - -
28/03:30am 24.0 SE 20 23 1003.2 - 0.0 - - - - - - -
28/03:00am 23.7 SE 20 23 1003.2 - 0.0 - - - - - - -
28/02:30am 24.8 SE 21 24 1003.2 - 0.0 - - - - - - -
28/02:00am 24.9 SE 20 24 1003.9 - 0.0 - - - - - - -
28/01:30am 24.7 SE 20 23 1004.1 - 0.0 - - - - - - -
28/01:00am 24.8 SE 18 20 1005.0 - 0.0 - - - - - - -
28/12:30am 25.0 SE 18 21 1005.1 - 0.0 - - - - - - -
28/12:00am 25.0 SE 20 22 1005.1 - 0.0 - - - - - - -
 
Date/Time
EST
Temp

°C
Wind Pressure Rain
since 9am
mm
Weather Cloud Vis
km
Sea
Height
m
Swell
Dir
 
Speed
knots
Gust
knots
hPa Trend Height
m
Period
s
Dir
27/11:30pm 25.1 ESE 20 24 1005.0 - 0.0 - - - - - - -
27/11:00pm 25.2 ESE 19 22 1005.4 - 0.0 - - - - - - -
27/10:30pm 25.3 ESE 20 24 1005.3 - 0.0 - - - - - - -
27/10:00pm 25.4 ESE 18 21 1005.5 - 0.0 - - - - - - -
27/09:30pm 25.4 ESE 20 23 1005.1 - 0.0 - - - - - - -
27/09:00pm 25.5 ESE 19 23 1005.5 - 0.0 - - - - - - -
27/08:30pm 25.6 ESE 20 23 1005.3 - 0.0 - - - - - - -
27/08:00pm 25.7 ESE 18 22 1005.4 - 0.0 - - - - - - -
27/07:30pm 25.7 ESE 21 24 1004.9 - 0.0 - - - - - - -
27/07:00pm 25.7 ESE 21 23 1004.5 - 0.0 - - - - - - -
27/06:30pm 25.8 ESE 18 21 1004.7 - 0.0 - - - - - - -
27/06:00pm 26.0 ESE 19 23 1004.3 - 0.0 - - - - - - -
27/05:30pm 26.1 ESE 18 22 1003.9 - 0.0 - - - - - - -
27/05:00pm 26.1 ESE 19 22 1003.8 - 0.0 - - - - - - -
27/04:30pm 27.1 ESE 19 22 1003.7 - 0.0 - - - - - - -
27/04:00pm 27.3 ESE 20 23 1003.7 - 0.0 - - - - - - -
27/03:30pm 27.5 ESE 20 25 1003.8 - 0.0 - - - - - - -
27/03:00pm 27.4 SE 21 25 1004.2 - 0.0 - - - - - - -
27/02:30pm 28.1 SE 20 23 1004.5 - 0.0 - - - - - - -
27/02:00pm 27.4 SE 19 22 1004.8 - 0.0 - - - - - - -
27/01:30pm 27.2 SE 21 23 1004.9 - 0.0 - - - - - - -
27/01:00pm 28.4 SE 17 19 1005.4 - 0.0 - - - - - - -
27/12:30pm 29.2 SE 16 18 1005.8 - 0.0 - - - - - - -
27/12:00pm 28.7 SE 15 17 1006.2 - 0.0 - - - - - - -
27/11:30am 29.0 SE 15 18 1006.4 - 0.0 - - - - - - -
27/11:00am 28.6 SE 16 19 1006.8 - 0.0 - - - - - - -
27/10:30am 28.7 SE 15 17 1007.2 - 0.0 - - - - - - -
27/10:00am 29.1 ESE 15 18 1007.0 - 0.0 - - - - - - -
27/09:30am 28.7 ESE 14 17 1007.1 - 0.0 - - - - - - -
27/09:00am 28.3 ESE 17 19 1006.8 - 0.0 - - - - - - -
27/08:30am 27.5 ESE 18 20 1006.4 - 0.0 - - - - - - -
27/08:00am 26.0 E 16 20 1006.2 - 0.0 - - - - - - -
27/07:30am 25.7 ESE 15 18 1006.4 - 0.0 - - - - - - -
27/07:00am 25.9 ESE 15 18 1006.2 - 0.0 - - - - - - -
27/06:30am 26.6 ESE 15 16 1006.1 - 0.0 - - - - - - -
27/06:00am 25.8 ESE 15 18 1006.2 - 0.0 - - - - - - -
27/05:30am 25.4 ESE 15 17 1005.9 - 0.0 - - - - - - -
27/05:00am 25.3 ESE 15 17 1005.7 - 0.0 - - - - - - -
27/04:30am 25.4 ESE 16 19 1005.5 - 0.0 - - - - - - -
27/04:00am 25.4 ESE 19 21 1005.1 - 0.0 - - - - - - -
27/03:30am 25.5 ESE 19 21 1004.7 - 0.0 - - - - - - -
27/03:00am 25.6 E 16 18 1004.7 - 0.0 - - - - - - -
27/02:30am 25.6 ESE 16 19 1004.7 - 0.0 - - - - - - -
27/02:00am 25.7 ESE 19 22 1004.7 - 0.0 - - - - - - -
27/01:30am 25.8 ESE 18 21 1005.0 - 0.0 - - - - - - -
27/01:00am 25.8 SE 19 23 1005.2 - 0.0 - - - - - - -
27/12:30am 25.9 SE 19 22 1005.8 - 0.0 - - - - - - -
27/12:00am 25.9 SE 19 22 1006.1 - 0.0 - - - - - - -
 
Date/Time
EST
Temp

°C
Wind Pressure Rain
since 9am
mm
Weather Cloud Vis
km
Sea
Height
m
Swell
Dir
 
Speed
knots
Gust
knots
hPa Trend Height
m
Period
s
Dir
26/11:30pm 26.1 SE 20 22 1006.4 - 0.0 - - - - - - -
26/11:00pm 26.1 SE 15 18 1006.7 - 0.0 - - - - - - -

Other Formats:

Comma delimited format used in spreadsheet applications
http://www.bom.gov.au/fwo/IDQ60701/IDQ60701.94584.axf

JavaScript Object Notation format (JSON) in row-major order
http://www.bom.gov.au/fwo/IDQ60701/IDQ60701.94584.json